createdAt,value
2023-02-11T00:01:37.192Z,86.14
2023-02-11T00:04:07.050Z,86.07
2023-02-11T00:06:36.488Z,85.98
2023-02-11T00:09:05.888Z,86.46
2023-02-11T00:11:34.889Z,86.51
2023-02-11T00:14:06.117Z,86.10
2023-02-11T00:16:34.854Z,85.92
2023-02-11T00:19:06.595Z,85.80
2023-02-11T00:21:35.403Z,85.97
2023-02-11T00:24:04.558Z,86.39
2023-02-11T00:26:35.441Z,86.88
2023-02-11T00:29:06.350Z,87.25
2023-02-11T00:31:35.142Z,87.06
2023-02-11T00:34:03.812Z,86.74
2023-02-11T00:41:14.010Z,85.74
2023-02-11T00:43:42.942Z,85.78
2023-02-11T00:46:12.143Z,85.95
2023-02-11T00:48:41.009Z,86.66
2023-02-11T00:51:10.173Z,86.37
2023-02-11T00:53:39.068Z,86.11
2023-02-11T00:56:08.251Z,85.77
2023-02-11T00:58:37.559Z,85.66
2023-02-11T01:01:06.564Z,85.65
2023-02-11T01:03:35.516Z,86.15
2023-02-11T01:06:04.742Z,86.24
2023-02-11T01:08:33.205Z,86.07
2023-02-11T01:11:06.100Z,85.59
2023-02-11T01:14:34.292Z,85.67
2023-02-11T01:21:20.608Z,86.00
2023-02-11T01:23:49.109Z,86.83
2023-02-11T01:26:17.594Z,86.69
2023-02-11T01:28:46.472Z,86.16
2023-02-11T01:31:14.844Z,86.09
2023-02-11T01:33:43.743Z,86.06
2023-02-11T01:36:13.350Z,85.95
2023-02-11T01:38:42.049Z,85.65
2023-02-11T01:41:13.482Z,85.97
2023-02-11T01:43:48.219Z,86.29
2023-02-11T01:46:37.746Z,86.18
2023-02-11T01:49:10.832Z,85.97
2023-02-11T01:51:48.581Z,86.37
2023-02-11T01:54:41.123Z,86.16
2023-02-11T01:57:22.729Z,85.82
2023-02-11T02:00:13.312Z,85.60
2023-02-11T02:02:52.843Z,85.89
2023-02-11T02:05:43.756Z,85.97
2023-02-11T02:08:22.273Z,85.79
2023-02-11T02:10:56.695Z,86.15
2023-02-11T02:13:26.162Z,85.11
2023-02-11T02:15:57.523Z,84.96
2023-02-11T02:18:49.268Z,85.53
2023-02-11T02:21:46.119Z,85.77
2023-02-11T02:24:39.792Z,85.22
2023-02-11T02:27:46.324Z,85.20
2023-02-11T02:30:39.056Z,85.15
2023-02-11T02:33:23.233Z,85.06
2023-02-11T02:36:13.768Z,84.59
2023-02-11T02:38:58.325Z,84.62
2023-02-11T02:41:32.671Z,84.61
2023-02-11T02:44:02.004Z,83.96
2023-02-11T02:46:33.454Z,83.93
2023-02-11T02:49:02.415Z,84.00
2023-02-11T02:51:39.880Z,84.70
2023-02-11T02:54:17.579Z,84.89
2023-02-11T02:57:18.231Z,85.44
2023-02-11T02:59:53.192Z,85.59
2023-02-11T03:02:37.492Z,85.74
2023-02-11T03:05:22.006Z,85.86
2023-02-11T03:08:09.368Z,85.44
2023-02-11T03:10:43.497Z,86.14
2023-02-11T03:13:17.305Z,86.03
2023-02-11T03:15:51.929Z,86.64
2023-02-11T03:18:26.308Z,86.47
2023-02-11T03:20:57.239Z,85.99
2023-02-11T03:23:39.975Z,85.95
2023-02-11T03:26:23.429Z,85.81
2023-02-11T03:29:14.745Z,85.87
2023-02-11T03:31:55.182Z,86.33
2023-02-11T03:34:29.009Z,86.30
2023-02-11T03:37:04.658Z,86.14
2023-02-11T03:39:55.320Z,85.69
2023-02-11T03:42:27.637Z,85.11
2023-02-11T03:45:05.452Z,85.00
2023-02-11T03:47:37.375Z,84.75
2023-02-11T03:50:08.201Z,84.38
2023-02-11T03:52:38.428Z,83.93
2023-02-11T03:55:12.619Z,84.17
2023-02-11T03:57:41.468Z,83.71
2023-02-11T04:00:11.603Z,83.84
2023-02-11T04:02:41.002Z,83.40
2023-02-11T04:05:15.915Z,83.36
2023-02-11T04:07:44.605Z,83.24
2023-02-11T04:10:13.286Z,83.24
2023-02-11T04:12:41.769Z,83.24
2023-02-11T04:15:11.083Z,82.98
2023-02-11T04:17:39.657Z,83.15
2023-02-11T04:20:09.584Z,83.30
2023-02-11T04:22:38.455Z,83.47
2023-02-11T04:25:08.093Z,83.40
2023-02-11T04:27:37.269Z,83.36
2023-02-11T04:30:07.721Z,83.10
2023-02-11T04:32:36.135Z,82.89
2023-02-11T04:35:05.368Z,83.25
2023-02-11T04:37:33.980Z,82.90
2023-02-11T04:40:02.918Z,82.30
2023-02-11T04:42:31.733Z,82.17
2023-02-11T04:45:00.421Z,82.23
2023-02-11T04:47:28.797Z,82.20
2023-02-11T04:50:57.294Z,82.15
2023-02-11T04:54:25.575Z,82.41
2023-02-11T04:57:57.861Z,82.63
2023-02-11T05:01:26.159Z,82.29
2023-02-11T05:04:54.616Z,82.31
2023-02-11T05:08:23.011Z,82.18
2023-02-11T05:11:57.269Z,82.26
2023-02-11T05:19:42.683Z,82.46
2023-02-11T05:22:11.533Z,82.30
2023-02-11T05:24:40.214Z,82.11
2023-02-11T05:27:08.901Z,82.01
2023-02-11T05:29:37.692Z,81.90
2023-02-11T05:32:07.608Z,82.09
2023-02-11T05:34:37.112Z,82.09
2023-02-11T05:37:05.836Z,82.00
2023-02-11T05:39:34.376Z,82.32
2023-02-11T05:42:03.060Z,82.39
2023-02-11T05:44:31.588Z,82.44
2023-02-11T05:47:00.135Z,82.80
2023-02-11T05:49:28.913Z,82.98
2023-02-11T05:51:57.504Z,83.16
2023-02-11T05:54:26.415Z,83.43
2023-02-11T05:56:54.869Z,83.50
2023-02-11T05:59:23.454Z,83.91
2023-02-11T06:01:52.135Z,83.92
2023-02-11T06:04:21.030Z,84.18
2023-02-11T06:06:49.612Z,84.57
2023-02-11T06:09:18.096Z,85.05
2023-02-11T06:11:46.872Z,85.38
2023-02-11T06:14:15.404Z,85.06
2023-02-11T06:16:44.053Z,85.47
2023-02-11T06:19:13.038Z,85.35
2023-02-11T06:21:44.147Z,86.04
2023-02-11T06:24:13.570Z,85.98
2023-02-11T06:26:42.275Z,85.77
2023-02-11T06:29:10.762Z,85.48
2023-02-11T06:31:39.963Z,85.63
2023-02-11T06:34:10.693Z,85.83
2023-02-11T06:36:40.057Z,85.65
2023-02-11T06:39:08.786Z,85.65
2023-02-11T06:41:38.083Z,85.76
2023-02-11T06:44:07.307Z,85.86
2023-02-11T06:46:35.877Z,85.87
2023-02-11T06:49:04.446Z,85.71
2023-02-11T06:51:33.339Z,85.08
2023-02-11T06:54:02.087Z,85.03
2023-02-11T06:56:30.621Z,82.83
2023-02-11T06:59:00.134Z,83.09
2023-02-11T07:01:28.921Z,81.95
2023-02-11T07:03:57.488Z,81.70
2023-02-11T07:06:28.220Z,81.99
2023-02-11T07:08:56.847Z,82.07
2023-02-11T07:11:28.010Z,81.87
2023-02-11T07:14:56.540Z,81.27
2023-02-11T07:18:28.615Z,79.83
2023-02-11T07:20:57.404Z,78.77
2023-02-11T07:23:25.759Z,78.76
2023-02-11T07:25:54.162Z,78.61
2023-02-11T07:28:22.849Z,78.24
2023-02-11T07:30:51.354Z,77.96
2023-02-11T07:33:19.812Z,77.74
2023-02-11T07:35:49.279Z,77.91
2023-02-11T07:38:18.011Z,78.18
2023-02-11T07:40:46.481Z,77.53
2023-02-11T07:43:15.372Z,76.45
2023-02-11T07:45:43.920Z,75.36
2023-02-11T07:48:12.439Z,74.46
2023-02-11T07:50:41.140Z,75.48
2023-02-11T07:53:09.810Z,74.60
2023-02-11T07:55:38.291Z,73.41
2023-02-11T07:58:06.980Z,73.69
2023-02-11T08:00:35.503Z,73.94
2023-02-11T08:03:04.556Z,73.78
2023-02-11T08:05:33.550Z,71.99
2023-02-11T08:08:01.805Z,71.81
2023-02-11T08:10:30.308Z,72.02
2023-02-11T08:12:58.895Z,70.50
2023-02-11T08:15:27.441Z,70.77
2023-02-11T08:17:55.858Z,69.66
2023-02-11T08:20:24.745Z,70.24
2023-02-11T08:22:53.204Z,70.72
2023-02-11T08:25:21.609Z,69.68
2023-02-11T08:27:50.265Z,70.15
2023-02-11T08:30:18.771Z,70.41
2023-02-11T08:32:47.766Z,69.35
2023-02-11T08:35:16.663Z,69.38
2023-02-11T08:37:45.444Z,69.00
2023-02-11T08:40:13.874Z,68.59
2023-02-11T08:42:42.644Z,68.66
2023-02-11T08:45:13.001Z,68.55
2023-02-11T08:47:41.531Z,66.54
2023-02-11T08:50:10.351Z,66.46
2023-02-11T08:52:38.951Z,66.44
2023-02-11T08:55:07.686Z,66.87
2023-02-11T08:57:36.373Z,66.64
2023-02-11T09:00:06.047Z,66.73
2023-02-11T09:02:34.632Z,66.71
2023-02-11T09:05:03.357Z,65.38
2023-02-11T09:07:32.423Z,64.91
2023-02-11T09:10:01.154Z,64.14
2023-02-11T09:12:29.721Z,64.40
2023-02-11T09:14:58.987Z,63.31
2023-02-11T09:17:27.344Z,62.20
2023-02-11T09:19:56.191Z,62.02
2023-02-11T09:22:24.775Z,62.09
2023-02-11T09:24:53.259Z,61.66
2023-02-11T09:27:21.955Z,60.68
2023-02-11T09:29:50.979Z,60.20
2023-02-11T09:32:19.428Z,61.13
2023-02-11T09:34:47.908Z,61.28
2023-02-11T09:37:16.795Z,59.73
2023-02-11T09:39:46.403Z,59.83
2023-02-11T09:42:38.236Z,59.41
2023-02-11T09:45:24.532Z,58.81
2023-02-11T09:47:58.304Z,57.60
2023-02-11T09:51:37.983Z,57.67
2023-02-11T09:54:46.377Z,57.02
2023-02-11T09:58:14.490Z,57.07
2023-02-11T10:01:47.703Z,57.13
2023-02-11T10:04:28.426Z,57.56
2023-02-11T10:07:08.337Z,55.28
2023-02-11T10:09:54.998Z,55.51
2023-02-11T10:12:33.028Z,54.73
2023-02-11T10:15:21.584Z,55.26
2023-02-11T10:18:11.259Z,54.49
2023-02-11T10:21:20.091Z,53.22
2023-02-11T10:23:52.665Z,52.95
2023-02-11T10:26:21.559Z,52.55
2023-02-11T10:28:54.205Z,53.08
2023-02-11T10:31:42.897Z,51.73
2023-02-11T10:34:13.550Z,51.61
2023-02-11T10:36:44.708Z,52.03
2023-02-11T10:39:22.115Z,50.38
2023-02-11T10:42:12.662Z,49.94
2023-02-11T10:44:58.169Z,47.70
2023-02-11T10:47:30.991Z,48.99
2023-02-11T10:50:03.875Z,47.37
2023-02-11T10:52:32.560Z,47.29
2023-02-11T10:55:03.244Z,46.10
2023-02-11T10:57:46.887Z,45.49
2023-02-11T11:00:18.622Z,44.82
2023-02-11T11:02:57.846Z,45.68
2023-02-11T11:05:33.286Z,45.82
2023-02-11T11:08:07.105Z,43.59
2023-02-11T11:10:47.168Z,43.27
2023-02-11T11:14:13.672Z,43.47
2023-02-11T11:17:41.995Z,43.89
2023-02-11T11:20:27.792Z,41.85
2023-02-11T11:23:19.920Z,40.53
2023-02-11T11:26:11.243Z,39.14
2023-02-11T11:28:53.751Z,39.22
2023-02-11T11:31:26.391Z,35.76
2023-02-11T11:33:58.299Z,36.98
2023-02-11T11:36:35.688Z,37.37
2023-02-11T11:39:28.019Z,38.01
2023-02-11T11:41:58.610Z,38.81
2023-02-11T11:44:38.505Z,38.82
2023-02-11T11:47:13.840Z,38.75
2023-02-11T11:49:49.240Z,39.19
2023-02-11T11:52:35.245Z,38.60
2023-02-11T11:55:42.366Z,39.13
2023-02-11T11:58:19.040Z,35.40
2023-02-11T12:00:58.479Z,36.00
2023-02-11T12:03:45.326Z,35.62
2023-02-11T12:06:39.995Z,35.64
2023-02-11T12:09:17.804Z,34.37
2023-02-11T12:12:06.754Z,36.24
2023-02-11T12:14:46.497Z,35.71
2023-02-11T12:17:25.943Z,36.18
2023-02-11T12:20:29.848Z,35.65
2023-02-11T12:23:06.730Z,34.33
2023-02-11T12:25:46.806Z,34.58
2023-02-11T12:28:24.942Z,35.43
2023-02-11T12:31:13.288Z,35.19
2023-02-11T12:34:19.299Z,35.55
2023-02-11T12:37:07.925Z,36.40
2023-02-11T12:39:51.884Z,35.61
2023-02-11T12:43:09.845Z,35.09
2023-02-11T12:46:03.117Z,34.55
2023-02-11T12:48:37.844Z,33.53
2023-02-11T12:51:12.359Z,34.28
2023-02-11T12:53:50.994Z,34.82
2023-02-11T12:56:28.780Z,34.14
2023-02-11T12:59:00.873Z,32.71
2023-02-11T13:01:31.781Z,31.87
2023-02-11T13:04:09.589Z,33.40
2023-02-11T13:06:45.159Z,34.06
2023-02-11T13:09:21.537Z,32.03
2023-02-11T13:11:55.056Z,31.48
2023-02-11T13:14:38.337Z,31.27
2023-02-11T13:17:16.721Z,30.59
2023-02-11T13:19:55.811Z,30.47
2023-02-11T13:22:32.564Z,29.71
2023-02-11T13:25:25.204Z,31.08
2023-02-11T13:28:21.163Z,31.42
2023-02-11T13:30:57.909Z,31.64
2023-02-11T13:33:46.456Z,33.31
2023-02-11T13:36:18.353Z,32.85
2023-02-11T13:39:00.024Z,32.52
2023-02-11T13:41:30.343Z,32.68
2023-02-11T13:44:10.900Z,33.21
2023-02-11T13:46:59.972Z,33.98
2023-02-11T13:49:36.716Z,35.46
2023-02-11T13:52:17.411Z,36.86
2023-02-11T13:54:52.340Z,38.24
2023-02-11T13:57:20.921Z,38.82
2023-02-11T13:59:52.744Z,38.97
2023-02-11T14:02:43.376Z,38.76
2023-02-11T14:05:44.357Z,38.35
2023-02-11T14:08:31.653Z,39.12
2023-02-11T14:11:12.808Z,38.72
2023-02-11T14:13:53.363Z,38.25
2023-02-11T14:16:36.893Z,37.73
2023-02-11T14:19:06.926Z,38.12
2023-02-11T14:21:42.599Z,38.53
2023-02-11T14:24:33.983Z,37.98
2023-02-11T14:28:10.896Z,37.74
2023-02-11T14:31:17.862Z,37.96
2023-02-11T14:34:14.431Z,38.89
2023-02-11T14:36:59.420Z,39.28
2023-02-11T14:39:28.134Z,39.70
2023-02-11T14:41:57.191Z,40.06
2023-02-11T14:44:31.687Z,40.37
2023-02-11T14:47:00.682Z,40.23
2023-02-11T14:49:35.222Z,40.02
2023-02-11T14:52:32.185Z,40.49
2023-02-11T14:55:27.795Z,40.73
2023-02-11T14:58:08.916Z,41.18
2023-02-11T15:00:37.662Z,42.27
2023-02-11T15:03:06.246Z,42.67
2023-02-11T15:05:35.258Z,42.66
2023-02-11T15:08:05.677Z,43.27
2023-02-11T15:10:44.084Z,44.79
2023-02-11T15:13:20.661Z,46.11
2023-02-11T15:15:53.261Z,47.24
2023-02-11T15:18:24.645Z,48.65
2023-02-11T15:20:53.515Z,49.55
2023-02-11T15:23:26.252Z,50.84
2023-02-11T15:25:58.316Z,52.67
2023-02-11T15:28:31.388Z,53.55
2023-02-11T15:31:13.825Z,53.92
2023-02-11T15:33:42.473Z,54.83
2023-02-11T15:36:15.615Z,55.24
2023-02-11T15:38:45.000Z,56.64
2023-02-11T15:41:37.438Z,57.41
2023-02-11T15:44:05.988Z,57.75
2023-02-11T15:46:40.236Z,57.93
2023-02-11T15:49:19.414Z,59.06
2023-02-11T15:51:48.364Z,60.51
2023-02-11T15:59:08.664Z,61.80
2023-02-11T16:02:36.769Z,61.84
2023-02-11T16:09:24.121Z,62.83
2023-02-11T16:12:12.778Z,63.30
2023-02-11T16:14:41.461Z,63.30
2023-02-11T16:17:24.681Z,63.92
2023-02-11T16:19:54.497Z,63.91
2023-02-11T16:22:26.749Z,64.23
2023-02-11T16:24:58.934Z,64.62
2023-02-11T16:27:41.346Z,64.83
2023-02-11T16:30:33.228Z,64.96
2023-02-11T16:33:01.967Z,65.42
2023-02-11T16:35:30.757Z,65.58
2023-02-11T16:37:59.232Z,65.93
2023-02-11T16:40:28.124Z,65.99
2023-02-11T16:42:56.710Z,66.05
2023-02-11T16:45:25.204Z,66.18
2023-02-11T16:47:53.775Z,66.39
2023-02-11T16:50:25.114Z,66.74
2023-02-11T16:52:54.010Z,66.77
2023-02-11T16:55:22.604Z,66.40
2023-02-11T16:57:51.191Z,66.93
2023-02-11T17:00:20.481Z,66.92
2023-02-11T17:02:49.020Z,66.86
2023-02-11T17:05:23.101Z,66.94
2023-02-11T17:08:51.365Z,66.82
2023-02-11T17:12:20.058Z,66.87
2023-02-11T17:15:48.704Z,67.82
2023-02-11T17:22:11.961Z,68.26
2023-02-11T17:24:40.413Z,68.67
2023-02-11T17:27:11.427Z,68.84
2023-02-11T17:29:40.238Z,68.80
2023-02-11T17:32:08.802Z,69.62
2023-02-11T17:34:37.219Z,70.12
2023-02-11T17:37:09.682Z,70.49
2023-02-11T17:39:40.234Z,70.55
2023-02-11T17:42:08.995Z,70.90
2023-02-11T17:44:38.260Z,70.77
2023-02-11T17:47:07.903Z,71.19
2023-02-11T17:49:36.593Z,71.52
2023-02-11T17:52:05.488Z,71.46
2023-02-11T17:54:34.178Z,71.49
2023-02-11T17:57:02.857Z,71.50
2023-02-11T17:59:35.766Z,71.42
2023-02-11T18:02:05.661Z,72.16
2023-02-11T18:04:34.085Z,72.53
2023-02-11T18:07:03.044Z,72.22
2023-02-11T18:09:36.125Z,72.34
2023-02-11T18:12:05.785Z,72.68
2023-02-11T18:14:34.514Z,72.98
2023-02-11T18:17:03.195Z,73.58
2023-02-11T18:19:33.492Z,73.82
2023-02-11T18:22:02.935Z,73.72
2023-02-11T18:24:31.827Z,74.26
2023-02-11T18:27:00.509Z,74.39
2023-02-11T18:29:29.892Z,74.39
2023-02-11T18:31:58.637Z,74.36
2023-02-11T18:34:27.386Z,74.55
2023-02-11T18:36:57.181Z,74.82
2023-02-11T18:39:26.704Z,75.00
2023-02-11T18:41:57.101Z,74.94
2023-02-11T18:44:27.522Z,74.78
2023-02-11T18:46:56.147Z,74.91
2023-02-11T18:49:24.628Z,75.03
2023-02-11T18:51:53.316Z,76.12
2023-02-11T18:54:22.305Z,76.54
2023-02-11T18:56:50.907Z,76.41
2023-02-11T18:59:19.381Z,76.91
2023-02-11T19:01:48.059Z,76.65
2023-02-11T19:04:20.572Z,76.94
2023-02-11T19:06:50.160Z,77.14
2023-02-11T19:09:20.400Z,77.13
2023-02-11T19:11:52.606Z,77.12
2023-02-11T19:14:28.256Z,77.50
2023-02-11T19:16:59.253Z,77.73
2023-02-11T19:19:30.181Z,77.58
2023-02-11T19:22:00.385Z,77.46
2023-02-11T19:24:30.117Z,77.68
2023-02-11T19:27:02.167Z,77.80
2023-02-11T19:29:35.410Z,77.79
2023-02-11T19:32:09.103Z,77.86
2023-02-11T19:34:41.528Z,78.03
2023-02-11T19:37:13.073Z,78.08
2023-02-11T19:39:42.711Z,77.76
2023-02-11T19:42:12.202Z,78.02
2023-02-11T19:44:40.988Z,78.19
2023-02-11T19:47:10.706Z,77.93
2023-02-11T19:49:39.176Z,77.84
2023-02-11T19:52:07.733Z,77.86
2023-02-11T19:54:38.366Z,78.75
2023-02-11T19:57:06.982Z,78.62
2023-02-11T19:59:35.875Z,78.77
2023-02-11T20:02:04.637Z,78.79
2023-02-11T20:04:33.545Z,79.10
2023-02-11T20:07:02.236Z,79.46
2023-02-11T20:09:32.046Z,79.58
2023-02-11T20:12:00.751Z,79.58
2023-02-11T20:14:29.526Z,79.67
2023-02-11T20:16:58.105Z,79.89
2023-02-11T20:19:28.124Z,80.17
2023-02-11T20:21:57.509Z,79.94
2023-02-11T20:24:26.620Z,79.73
2023-02-11T20:26:58.497Z,80.47
2023-02-11T20:29:29.702Z,80.84
2023-02-11T20:31:58.315Z,80.52
2023-02-11T20:34:26.997Z,80.07
2023-02-11T20:36:56.404Z,81.29
2023-02-11T20:39:26.103Z,81.43
2023-02-11T20:41:55.305Z,81.08
2023-02-11T20:44:24.795Z,81.26
2023-02-11T20:46:56.760Z,81.42
2023-02-11T20:49:25.461Z,81.51
2023-02-11T20:52:53.534Z,81.14
2023-02-11T20:56:22.087Z,81.69
2023-02-11T20:59:55.641Z,81.18
2023-02-11T21:03:24.298Z,81.14
2023-02-11T21:06:13.704Z,81.02
2023-02-11T21:08:42.493Z,80.96
2023-02-11T21:11:11.280Z,80.57
2023-02-11T21:13:41.330Z,80.26
2023-02-11T21:16:14.820Z,80.19
2023-02-11T21:18:44.208Z,80.25
2023-02-11T21:21:12.794Z,80.33
2023-02-11T21:23:41.588Z,80.23
2023-02-11T21:26:10.683Z,80.45
2023-02-11T21:28:41.047Z,80.56
2023-02-11T21:32:09.673Z,80.72
2023-02-11T21:35:38.188Z,80.93
2023-02-11T21:39:06.675Z,80.93
2023-02-11T21:42:34.953Z,81.41
2023-02-11T21:45:03.707Z,80.85
2023-02-11T21:48:31.903Z,80.66
2023-02-11T21:52:00.124Z,80.66
2023-02-11T21:55:28.902Z,80.30
2023-02-11T21:58:57.188Z,80.48
2023-02-11T22:02:25.576Z,80.73
2023-02-11T22:05:54.296Z,80.65
2023-02-11T22:09:22.858Z,80.61
2023-02-11T22:16:43.437Z,80.53
2023-02-11T22:19:21.110Z,80.44
2023-02-11T22:21:50.247Z,80.58
2023-02-11T22:24:18.867Z,80.83
2023-02-11T22:26:47.350Z,81.41
2023-02-11T22:29:16.203Z,81.09
2023-02-11T22:31:44.851Z,81.11
2023-02-11T22:34:13.606Z,80.62
2023-02-11T22:36:42.393Z,80.32
2023-02-11T22:39:16.252Z,80.46
2023-02-11T22:41:46.216Z,80.57
2023-02-11T22:44:17.430Z,80.35
2023-02-11T22:46:46.352Z,79.96
2023-02-11T22:49:16.471Z,79.60
2023-02-11T22:51:45.566Z,79.32
2023-02-11T22:54:16.404Z,79.28
2023-02-11T22:56:45.707Z,79.43
2023-02-11T22:59:15.930Z,79.37
2023-02-11T23:01:45.410Z,78.99
2023-02-11T23:04:17.354Z,79.02
2023-02-11T23:06:47.813Z,79.16
2023-02-11T23:09:16.508Z,79.62
2023-02-11T23:11:45.095Z,80.88
2023-02-11T23:14:13.898Z,81.18
2023-02-11T23:16:42.489Z,81.32
2023-02-11T23:19:11.490Z,81.43
2023-02-11T23:22:39.848Z,81.60
2023-02-11T23:26:08.336Z,82.17
2023-02-11T23:29:36.780Z,83.06
2023-02-11T23:37:22.203Z,83.51
2023-02-11T23:40:50.402Z,84.17
2023-02-11T23:44:18.688Z,85.28
2023-02-11T23:47:46.792Z,86.05
2023-02-11T23:51:19.276Z,87.25
2023-02-11T23:54:47.551Z,87.42
2023-02-11T23:58:16.142Z,86.90
